Time,TemperatureF,DewpointF,PressureIn,WindDirection,WindDirectionDegrees,WindSpeedMPH,WindSpeedGustMPH,Humidity,HourlyPrecipIn,Conditions,Clouds,dailyrainin,SoftwareType,DateUTC
2013-09-21 00:00:00,63.7,62.8,29.94,East,82,1.0,1.0,97,0.00,,---,0.00,VWS V14.01,2013-09-21 04:00:00,
2013-09-21 00:01:00,63.7,62.8,29.94,East,82,0.0,1.0,97,0.00,,---,0.00,VWS V14.01,2013-09-21 04:01:00,
2013-09-21 00:02:00,63.7,62.8,29.94,East,82,0.0,1.0,97,0.00,,---,0.00,VWS V14.01,2013-09-21 04:02:00,
2013-09-21 00:07:00,64.2,63.6,29.93,East,88,0.0,2.0,98,0.00,,---,0.00,VWS V14.01,2013-09-21 04:07:00,
2013-09-21 00:10:00,64.4,63.8,29.93,East,87,0.0,2.0,98,0.00,,---,0.00,VWS V14.01,2013-09-21 04:10:00,
2013-09-21 00:12:00,64.7,64.1,29.93,ENE,74,1.0,3.0,98,0.00,,---,0.00,VWS V14.01,2013-09-21 04:12:00,
2013-09-21 00:17:00,65.3,64.4,29.93,East,86,2.0,4.0,97,0.00,,---,0.00,VWS V14.01,2013-09-21 04:17:00,
2013-09-21 00:20:00,65.5,64.3,29.93,ESE,107,2.0,6.0,96,0.00,,---,0.00,VWS V14.01,2013-09-21 04:20:00,
2013-09-21 00:22:00,65.7,64.5,29.93,East,90,4.0,5.0,96,0.00,,---,0.00,VWS V14.01,2013-09-21 04:22:00,
2013-09-21 00:27:00,66.0,64.5,29.93,ESE,110,1.0,8.0,95,0.00,,---,0.00,VWS V14.01,2013-09-21 04:27:00,
2013-09-21 00:30:00,66.0,64.5,29.93,SE,132,2.0,8.0,95,0.00,,---,0.00,VWS V14.01,2013-09-21 04:30:00,
2013-09-21 00:32:00,66.1,64.3,29.93,ESE,113,4.0,5.0,94,0.00,,---,0.00,VWS V14.01,2013-09-21 04:32:00,
2013-09-21 00:37:00,66.2,64.4,29.93,ESE,120,1.0,5.0,94,0.00,,---,0.00,VWS V14.01,2013-09-21 04:37:00,
2013-09-21 00:40:00,66.2,64.4,29.93,ESE,110,2.0,5.0,94,0.00,,---,0.00,VWS V14.01,2013-09-21 04:40:00,
2013-09-21 00:42:00,66.2,64.4,29.93,ESE,106,2.0,3.0,94,0.00,,---,0.00,VWS V14.01,2013-09-21 04:42:00,
2013-09-21 00:47:00,66.2,64.4,29.93,ESE,122,1.0,3.0,94,0.00,,---,0.00,VWS V14.01,2013-09-21 04:47:00,
2013-09-21 00:50:00,66.2,64.4,29.93,ESE,113,0.0,3.0,94,0.00,,---,0.00,VWS V14.01,2013-09-21 04:50:00,
2013-09-21 00:52:00,66.2,64.4,29.93,ESE,121,0.0,1.0,94,0.00,,---,0.00,VWS V14.01,2013-09-21 04:52:00,
2013-09-21 00:57:00,66.2,64.4,29.93,East,99,1.0,2.0,94,0.00,,---,0.00,VWS V14.01,2013-09-21 04:57:00,
2013-09-21 01:00:00,66.2,64.4,29.93,East,97,1.0,2.0,94,0.00,,---,0.00,VWS V14.01,2013-09-21 05:00:00,
2013-09-21 01:02:00,66.1,64.3,29.93,East,95,1.0,1.0,94,0.00,,---,0.00,VWS V14.01,2013-09-21 05:02:00,
2013-09-21 01:07:00,66.0,64.2,29.93,East,91,1.0,2.0,94,0.00,,---,0.00,VWS V14.01,2013-09-21 05:07:00,
2013-09-21 01:10:00,66.0,64.2,29.93,East,87,1.0,2.0,94,0.00,,---,0.00,VWS V14.01,2013-09-21 05:10:00,
2013-09-21 01:12:00,66.0,64.2,29.93,East,87,0.0,1.0,94,0.00,,---,0.00,VWS V14.01,2013-09-21 05:12:00,
2013-09-21 01:17:00,65.9,64.1,29.93,ESE,111,0.0,2.0,94,0.00,,---,0.00,VWS V14.01,2013-09-21 05:17:00,
2013-09-21 01:20:00,65.9,64.1,29.92,ESE,115,0.0,2.0,94,0.00,,---,0.00,VWS V14.01,2013-09-21 05:20:00,
2013-09-21 01:22:00,65.9,64.1,29.92,East,98,2.0,2.0,94,0.00,,---,0.00,VWS V14.01,2013-09-21 05:22:00,
2013-09-21 01:27:00,65.8,64.0,29.92,ENE,68,1.0,3.0,94,0.00,,---,0.00,VWS V14.01,2013-09-21 05:27:00,
2013-09-21 01:30:00,65.7,63.9,29.92,East,91,0.0,3.0,94,0.00,,---,0.00,VWS V14.01,2013-09-21 05:30:00,
2013-09-21 01:32:00,65.6,64.1,29.93,ESE,113,1.0,2.0,95,0.00,,---,0.00,VWS V14.01,2013-09-21 05:32:00,
2013-09-21 01:37:00,65.5,64.0,29.93,East,91,1.0,2.0,95,0.00,,---,0.00,VWS V14.01,2013-09-21 05:37:00,
2013-09-21 01:40:00,65.5,64.0,29.93,SE,126,1.0,2.0,95,0.00,,---,0.00,VWS V14.01,2013-09-21 05:40:00,
2013-09-21 01:42:00,65.5,64.0,29.93,East,101,1.0,6.0,95,0.00,,---,0.00,VWS V14.01,2013-09-21 05:42:00,
2013-09-21 01:47:00,65.5,64.0,29.93,SE,132,2.0,6.0,95,0.00,,---,0.00,VWS V14.01,2013-09-21 05:47:00,
2013-09-21 01:50:00,65.4,63.9,29.92,ESE,119,0.0,6.0,95,0.00,,---,0.00,VWS V14.01,2013-09-21 05:50:00,
2013-09-21 01:52:00,65.4,63.9,29.93,East,97,0.0,2.0,95,0.00,,---,0.00,VWS V14.01,2013-09-21 05:52:00,
2013-09-21 01:57:00,65.2,63.7,29.93,East,80,0.0,2.0,95,0.00,,---,0.00,VWS V14.01,2013-09-21 05:57:00,
2013-09-21 02:00:00,65.2,63.7,29.92,East,99,0.0,2.0,95,0.00,,---,0.00,VWS V14.01,2013-09-21 06:00:00,
2013-09-21 02:02:00,65.1,63.6,29.92,ESE,120,1.0,2.0,95,0.00,,---,0.00,VWS V14.01,2013-09-21 06:02:00,
2013-09-21 02:07:00,65.0,63.5,29.92,ESE,118,2.0,3.0,95,0.00,,---,0.00,VWS V14.01,2013-09-21 06:07:00,
2013-09-21 02:10:00,65.0,63.5,29.92,ESE,116,1.0,3.0,95,0.00,,---,0.00,VWS V14.01,2013-09-21 06:10:00,
2013-09-21 02:12:00,65.0,63.8,29.92,ESE,103,0.0,4.0,96,0.00,,---,0.00,VWS V14.01,2013-09-21 06:12:00,
2013-09-21 02:17:00,65.0,63.8,29.92,SE,127,1.0,4.0,96,0.00,,---,0.00,VWS V14.01,2013-09-21 06:17:00,
2013-09-21 02:20:00,65.0,63.8,29.92,SE,134,0.0,4.0,96,0.00,,---,0.00,VWS V14.01,2013-09-21 06:20:00,
2013-09-21 02:22:00,65.1,63.9,29.92,SE,134,0.0,0.0,96,0.00,,---,0.00,VWS V14.01,2013-09-21 06:22:00,
2013-09-21 02:27:00,65.0,63.8,29.92,SE,134,0.0,0.0,96,0.00,,---,0.00,VWS V14.01,2013-09-21 06:27:00,
2013-09-21 02:30:00,65.0,63.8,29.92,SE,134,0.0,0.0,96,0.00,,---,0.00,VWS V14.01,2013-09-21 06:30:00,
2013-09-21 02:32:00,65.0,63.8,29.92,West,266,0.0,1.0,96,0.00,,---,0.00,VWS V14.01,2013-09-21 06:32:00,
2013-09-21 02:37:00,65.3,64.1,29.92,SSW,206,0.0,2.0,96,0.00,,---,0.00,VWS V14.01,2013-09-21 06:37:00,
2013-09-21 02:40:00,65.5,64.3,29.92,SW,223,2.0,4.0,96,0.00,,---,0.00,VWS V14.01,2013-09-21 06:40:00,
2013-09-21 02:42:00,65.9,64.4,29.92,SW,225,0.0,4.0,95,0.00,,---,0.00,VWS V14.01,2013-09-21 06:42:00,
2013-09-21 02:47:00,66.4,64.6,29.91,SW,226,0.0,4.0,94,0.00,,---,0.00,VWS V14.01,2013-09-21 06:47:00,
2013-09-21 02:50:00,66.5,64.4,29.91,SW,218,0.0,4.0,93,0.00,,---,0.00,VWS V14.01,2013-09-21 06:50:00,
2013-09-21 02:52:00,66.6,64.5,29.91,SW,222,2.0,7.0,93,0.00,,---,0.00,VWS V14.01,2013-09-21 06:52:00,
2013-09-21 02:57:00,66.9,64.8,29.91,SSW,212,5.0,7.0,93,0.00,,---,0.00,VWS V14.01,2013-09-21 06:57:00,
2013-09-21 03:00:00,67.0,64.9,29.91,South,184,3.0,7.0,93,0.00,,---,0.00,VWS V14.01,2013-09-21 07:00:00,
2013-09-21 03:02:00,67.1,65.0,29.92,SSE,163,4.0,4.0,93,0.00,,---,0.00,VWS V14.01,2013-09-21 07:02:00,
2013-09-21 03:07:00,67.1,65.0,29.91,SSW,197,3.0,5.0,93,0.00,,---,0.00,VWS V14.01,2013-09-21 07:07:00,
2013-09-21 03:10:00,67.0,64.9,29.91,SW,215,3.0,5.0,93,0.00,,---,0.00,VWS V14.01,2013-09-21 07:10:00,
2013-09-21 03:12:00,67.0,64.9,29.91,SW,215,5.0,6.0,93,0.00,,---,0.00,VWS V14.01,2013-09-21 07:12:00,
2013-09-21 03:17:00,66.9,64.8,29.91,SW,219,4.0,6.0,93,0.00,,---,0.00,VWS V14.01,2013-09-21 07:17:00,
2013-09-21 03:20:00,66.9,64.8,29.91,South,180,4.0,6.0,93,0.00,,---,0.00,VWS V14.01,2013-09-21 07:20:00,
2013-09-21 03:22:00,66.8,64.7,29.91,SSW,194,3.0,4.0,93,0.00,,---,0.00,VWS V14.01,2013-09-21 07:22:00,
2013-09-21 03:27:00,66.6,64.8,29.91,SSW,204,0.0,4.0,94,0.00,,---,0.00,VWS V14.01,2013-09-21 07:27:00,
2013-09-21 03:30:00,66.5,64.7,29.91,SSW,210,1.0,4.0,94,0.00,,---,0.00,VWS V14.01,2013-09-21 07:30:00,
2013-09-21 03:32:00,66.3,64.5,29.91,SSW,210,2.0,2.0,94,0.00,,---,0.00,VWS V14.01,2013-09-21 07:32:00,
2013-09-21 03:37:00,66.0,64.2,29.91,SSW,197,2.0,4.0,94,0.00,,---,0.00,VWS V14.01,2013-09-21 07:37:00,
2013-09-21 03:40:00,66.0,64.5,29.91,SSW,196,2.0,4.0,95,0.00,,---,0.00,VWS V14.01,2013-09-21 07:40:00,
2013-09-21 03:42:00,65.9,64.4,29.91,SSW,197,2.0,3.0,95,0.00,,---,0.00,VWS V14.01,2013-09-21 07:42:00,
2013-09-21 03:47:00,65.8,64.3,29.90,South,175,2.0,3.0,95,0.00,,---,0.00,VWS V14.01,2013-09-21 07:47:00,
2013-09-21 03:50:00,65.7,64.2,29.90,South,172,0.0,3.0,95,0.00,,---,0.00,VWS V14.01,2013-09-21 07:50:00,
2013-09-21 03:52:00,65.7,64.2,29.90,SSE,156,0.0,2.0,95,0.00,,---,0.00,VWS V14.01,2013-09-21 07:52:00,
2013-09-21 03:57:00,65.6,64.1,29.90,SSE,152,0.0,2.0,95,0.00,,---,0.00,VWS V14.01,2013-09-21 07:57:00,
2013-09-21 04:00:00,65.6,64.1,29.90,SE,146,0.0,2.0,95,0.00,,---,0.00,VWS V14.01,2013-09-21 08:00:00,
2013-09-21 04:02:00,65.6,64.1,29.90,SSE,155,0.0,2.0,95,0.00,,---,0.00,VWS V14.01,2013-09-21 08:02:00,
2013-09-21 04:07:00,65.5,64.0,29.90,SE,145,0.0,4.0,95,0.00,,---,0.00,VWS V14.01,2013-09-21 08:07:00,
2013-09-21 04:10:00,65.5,64.0,29.90,SE,142,1.0,4.0,95,0.00,,---,0.00,VWS V14.01,2013-09-21 08:10:00,
2013-09-21 04:12:00,65.4,63.9,29.90,SE,136,0.0,2.0,95,0.00,,---,0.00,VWS V14.01,2013-09-21 08:12:00,
2013-09-21 04:17:00,65.2,63.7,29.90,SSE,159,0.0,2.0,95,0.00,,---,0.00,VWS V14.01,2013-09-21 08:17:00,
2013-09-21 04:20:00,65.2,63.7,29.90,SE,128,0.0,2.0,95,0.00,,---,0.00,VWS V14.01,2013-09-21 08:20:00,
2013-09-21 04:22:00,65.1,63.9,29.90,SE,136,0.0,1.0,96,0.00,,---,0.00,VWS V14.01,2013-09-21 08:22:00,
2013-09-21 04:27:00,65.1,63.9,29.90,South,187,2.0,4.0,96,0.00,,---,0.00,VWS V14.01,2013-09-21 08:27:00,
2013-09-21 04:30:00,65.0,63.8,29.90,SSE,149,0.0,4.0,96,0.00,,---,0.00,VWS V14.01,2013-09-21 08:30:00,
2013-09-21 04:32:00,65.0,63.5,29.90,SSE,167,0.0,0.0,95,0.00,,---,0.00,VWS V14.01,2013-09-21 08:32:00,
2013-09-21 04:37:00,64.7,63.5,29.89,ESE,122,2.0,4.0,96,0.00,,---,0.00,VWS V14.01,2013-09-21 08:37:00,
2013-09-21 04:40:00,64.7,63.5,29.89,SSE,149,0.0,4.0,96,0.00,,---,0.00,VWS V14.01,2013-09-21 08:40:00,
2013-09-21 04:42:00,64.6,63.4,29.89,ESE,111,0.0,1.0,96,0.00,,---,0.00,VWS V14.01,2013-09-21 08:42:00,
2013-09-21 04:47:00,64.4,63.2,29.89,ESE,108,0.0,2.0,96,0.00,,---,0.00,VWS V14.01,2013-09-21 08:47:00,
2013-09-21 04:50:00,64.4,63.2,29.89,ESE,122,0.0,2.0,96,0.00,,---,0.00,VWS V14.01,2013-09-21 08:50:00,
2013-09-21 04:52:00,64.3,63.1,29.89,SE,131,1.0,1.0,96,0.00,,---,0.00,VWS V14.01,2013-09-21 08:52:00,
2013-09-21 04:57:00,64.1,62.9,29.89,SSE,152,0.0,1.0,96,0.00,,---,0.00,VWS V14.01,2013-09-21 08:57:00,
2013-09-21 05:00:00,64.1,62.9,29.89,SE,146,1.0,1.0,96,0.00,,---,0.00,VWS V14.01,2013-09-21 09:00:00,
2013-09-21 05:02:00,64.0,62.8,29.89,SE,140,0.0,0.0,96,0.00,,---,0.00,VWS V14.01,2013-09-21 09:02:00,
2013-09-21 05:07:00,64.0,63.1,29.89,SE,142,0.0,1.0,97,0.00,,---,0.00,VWS V14.01,2013-09-21 09:07:00,
2013-09-21 05:10:00,63.9,63.0,29.89,SE,138,0.0,1.0,97,0.00,,---,0.00,VWS V14.01,2013-09-21 09:10:00,
2013-09-21 05:12:00,63.9,63.0,29.89,SE,138,0.0,0.0,97,0.00,,---,0.00,VWS V14.01,2013-09-21 09:12:00,
2013-09-21 05:17:00,63.9,63.0,29.89,ESE,113,2.0,2.0,97,0.00,,---,0.00,VWS V14.01,2013-09-21 09:17:00,
2013-09-21 05:20:00,63.9,63.0,29.89,ESE,106,0.0,2.0,97,0.00,,---,0.00,VWS V14.01,2013-09-21 09:20:00,
2013-09-21 05:22:00,63.9,63.0,29.89,SE,131,2.0,2.0,97,0.00,,---,0.00,VWS V14.01,2013-09-21 09:22:00,
2013-09-21 05:27:00,63.9,63.0,29.88,SSE,165,0.0,3.0,97,0.00,,---,0.00,VWS V14.01,2013-09-21 09:27:00,
2013-09-21 05:30:00,63.9,63.0,29.88,ESE,122,0.0,3.0,97,0.00,,---,0.00,VWS V14.01,2013-09-21 09:30:00,
2013-09-21 05:32:00,63.9,63.0,29.88,ESE,115,2.0,3.0,97,0.00,,---,0.00,VWS V14.01,2013-09-21 09:32:00,
2013-09-21 05:37:00,63.9,63.0,29.88,SE,146,2.0,4.0,97,0.00,,---,0.00,VWS V14.01,2013-09-21 09:37:00,
2013-09-21 05:40:00,63.9,63.0,29.88,SE,131,3.0,4.0,97,0.00,,---,0.00,VWS V14.01,2013-09-21 09:40:00,
2013-09-21 05:42:00,63.9,63.0,29.88,SSE,156,0.0,5.0,97,0.00,,---,0.00,VWS V14.01,2013-09-21 09:42:00,
2013-09-21 05:47:00,63.9,63.0,29.88,ESE,117,1.0,5.0,97,0.00,,---,0.00,VWS V14.01,2013-09-21 09:47:00,
2013-09-21 05:50:00,63.9,63.0,29.88,ESE,116,2.0,5.0,97,0.00,,---,0.00,VWS V14.01,2013-09-21 09:50:00,
2013-09-21 05:53:00,63.9,63.0,29.88,ESE,116,1.0,3.0,97,0.00,,---,0.00,VWS V14.01,2013-09-21 09:53:00,
2013-09-21 05:58:00,63.9,63.0,29.87,SE,136,0.0,3.0,97,0.00,,---,0.00,VWS V14.01,2013-09-21 09:58:00,
2013-09-21 06:00:00,63.9,63.0,29.87,SE,134,1.0,3.0,97,0.00,,---,0.00,VWS V14.01,2013-09-21 10:00:00,
2013-09-21 06:03:00,63.9,63.0,29.87,SSE,149,0.0,1.0,97,0.00,,---,0.00,VWS V14.01,2013-09-21 10:03:00,
2013-09-21 06:08:00,63.8,62.9,29.87,SSE,167,0.0,1.0,97,0.00,,---,0.00,VWS V14.01,2013-09-21 10:08:00,
2013-09-21 06:10:00,63.8,62.9,29.87,SSE,150,0.0,1.0,97,0.00,,---,0.00,VWS V14.01,2013-09-21 10:10:00,
2013-09-21 06:13:00,63.8,62.9,29.87,ESE,122,1.0,4.0,97,0.00,,---,0.00,VWS V14.01,2013-09-21 10:13:00,
2013-09-21 06:18:00,63.8,62.9,29.87,SE,142,2.0,4.0,97,0.00,,---,0.00,VWS V14.01,2013-09-21 10:18:00,
2013-09-21 06:20:00,63.8,62.9,29.87,SSE,156,2.0,4.0,97,0.00,,---,0.00,VWS V14.01,2013-09-21 10:20:00,
2013-09-21 06:23:00,63.9,63.0,29.87,SE,138,3.0,3.0,97,0.00,,---,0.00,VWS V14.01,2013-09-21 10:23:00,
2013-09-21 06:28:00,63.9,63.0,29.87,SE,142,2.0,3.0,97,0.00,,---,0.00,VWS V14.01,2013-09-21 10:28:00,
2013-09-21 06:30:00,63.9,63.0,29.87,SSE,152,1.0,3.0,97,0.00,,---,0.00,VWS V14.01,2013-09-21 10:30:00,
2013-09-21 06:33:00,63.9,63.0,29.87,SE,133,0.0,3.0,97,0.00,,---,0.00,VWS V14.01,2013-09-21 10:33:00,
2013-09-21 06:38:00,63.9,63.0,29.87,SSE,148,0.0,3.0,97,0.00,,---,0.00,VWS V14.01,2013-09-21 10:38:00,
2013-09-21 06:40:00,63.9,63.0,29.87,SSE,156,1.0,3.0,97,0.00,,---,0.00,VWS V14.01,2013-09-21 10:40:00,
2013-09-21 06:43:00,64.0,63.1,29.87,SSE,152,0.0,2.0,97,0.00,,---,0.00,VWS V14.01,2013-09-21 10:43:00,
2013-09-21 06:48:00,64.0,63.1,29.87,SSW,204,1.0,2.0,97,0.00,,---,0.00,VWS V14.01,2013-09-21 10:48:00,
2013-09-21 06:50:00,64.0,63.1,29.87,SSW,194,0.0,2.0,97,0.00,,---,0.00,VWS V14.01,2013-09-21 10:50:00,
2013-09-21 06:53:00,64.1,63.2,29.87,SSW,210,0.0,1.0,97,0.00,,---,0.00,VWS V14.01,2013-09-21 10:53:00,
2013-09-21 06:58:00,64.1,63.2,29.87,SSW,206,0.0,2.0,97,0.00,,---,0.00,VWS V14.01,2013-09-21 10:58:00,
2013-09-21 07:00:00,64.1,63.2,29.87,SSW,204,0.0,2.0,97,0.00,,---,0.00,VWS V14.01,2013-09-21 11:00:00,
2013-09-21 07:03:00,64.1,63.2,29.86,SSE,163,0.0,1.0,97,0.00,,---,0.00,VWS V14.01,2013-09-21 11:03:00,
2013-09-21 07:08:00,64.2,63.3,29.87,South,169,0.0,2.0,97,0.00,,---,0.00,VWS V14.01,2013-09-21 11:08:00,
2013-09-21 07:10:00,64.2,63.3,29.87,SSW,201,2.0,2.0,97,0.00,,---,0.00,VWS V14.01,2013-09-21 11:10:00,
2013-09-21 07:13:00,64.3,63.4,29.87,WSW,238,2.0,4.0,97,0.00,,---,0.00,VWS V14.01,2013-09-21 11:13:00,
2013-09-21 07:18:00,64.4,63.5,29.87,SW,235,1.0,4.0,97,0.00,,---,0.00,VWS V14.01,2013-09-21 11:18:00,
2013-09-21 07:20:00,64.5,63.6,29.86,WSW,239,2.0,4.0,97,0.00,,---,0.00,VWS V14.01,2013-09-21 11:20:00,
2013-09-21 07:23:00,64.6,63.7,29.87,SW,215,2.0,4.0,97,0.00,,---,0.00,VWS V14.01,2013-09-21 11:23:00,
2013-09-21 07:28:00,64.7,63.5,29.86,SSW,194,4.0,6.0,96,0.00,,---,0.00,VWS V14.01,2013-09-21 11:28:00,
2013-09-21 07:30:00,64.7,63.5,29.86,SSW,198,3.0,6.0,96,0.00,,---,0.00,VWS V14.01,2013-09-21 11:30:00,
2013-09-21 07:33:00,64.9,63.7,29.86,SW,216,2.0,7.0,96,0.00,,---,0.00,VWS V14.01,2013-09-21 11:33:00,
2013-09-21 07:38:00,65.0,63.5,29.86,South,175,2.0,7.0,95,0.00,,---,0.00,VWS V14.01,2013-09-21 11:38:00,
2013-09-21 07:40:00,65.0,63.5,29.86,SSW,194,1.0,7.0,95,0.00,,---,0.00,VWS V14.01,2013-09-21 11:40:00,
2013-09-21 07:43:00,65.0,63.5,29.86,SSW,208,1.0,3.0,95,0.00,,---,0.00,VWS V14.01,2013-09-21 11:43:00,
2013-09-21 07:48:00,65.1,63.6,29.86,South,171,0.0,3.0,95,0.00,,---,0.00,VWS V14.01,2013-09-21 11:48:00,
2013-09-21 07:50:00,65.1,63.6,29.86,SSE,161,0.0,3.0,95,0.00,,---,0.00,VWS V14.01,2013-09-21 11:50:00,
2013-09-21 07:53:00,65.1,63.6,29.86,SE,136,0.0,1.0,95,0.00,,---,0.00,VWS V14.01,2013-09-21 11:53:00,
2013-09-21 07:58:00,65.1,63.6,29.86,SE,136,1.0,3.0,95,0.00,,---,0.00,VWS V14.01,2013-09-21 11:58:00,
2013-09-21 08:00:00,65.1,63.6,29.86,ESE,111,2.0,3.0,95,0.00,,---,0.00,VWS V14.01,2013-09-21 12:00:00,
2013-09-21 08:03:00,65.1,63.6,29.86,SE,142,1.0,4.0,95,0.00,,---,0.00,VWS V14.01,2013-09-21 12:03:00,
2013-09-21 08:08:00,65.2,63.7,29.86,South,191,0.0,4.0,95,0.00,,---,0.00,VWS V14.01,2013-09-21 12:08:00,
2013-09-21 08:10:00,65.1,63.6,29.86,South,191,0.0,4.0,95,0.00,,---,0.00,VWS V14.01,2013-09-21 12:10:00,
2013-09-21 08:13:00,65.1,63.6,29.86,SSE,158,1.0,3.0,95,0.00,,---,0.00,VWS V14.01,2013-09-21 12:13:00,
2013-09-21 08:18:00,65.1,63.3,29.86,SW,215,6.0,7.0,94,0.00,,---,0.00,VWS V14.01,2013-09-21 12:18:00,
2013-09-21 08:20:00,65.1,63.3,29.86,SW,216,4.0,7.0,94,0.00,,---,0.00,VWS V14.01,2013-09-21 12:20:00,
2013-09-21 08:23:00,65.2,63.4,29.85,SSW,205,1.0,6.0,94,0.00,,---,0.00,VWS V14.01,2013-09-21 12:23:00,
2013-09-21 08:28:00,65.2,63.4,29.85,SW,219,5.0,7.0,94,0.00,,---,0.00,VWS V14.01,2013-09-21 12:28:00,
2013-09-21 08:30:00,65.2,63.4,29.85,SW,217,3.0,7.0,94,0.00,,---,0.00,VWS V14.01,2013-09-21 12:30:00,
2013-09-21 08:33:00,65.1,63.3,29.85,SW,218,3.0,6.0,94,0.00,,---,0.00,VWS V14.01,2013-09-21 12:33:00,
2013-09-21 08:38:00,65.0,63.2,29.85,South,173,4.0,6.0,94,0.00,,---,0.00,VWS V14.01,2013-09-21 12:38:00,
2013-09-21 08:40:00,65.0,63.2,29.85,SSW,208,2.0,6.0,94,0.00,,---,0.00,VWS V14.01,2013-09-21 12:40:00,
2013-09-21 08:43:00,65.0,63.5,29.85,SSE,156,1.0,4.0,95,0.00,,---,0.00,VWS V14.01,2013-09-21 12:43:00,
2013-09-21 08:48:00,64.9,63.4,29.85,SE,146,1.0,4.0,95,0.00,,---,0.00,VWS V14.01,2013-09-21 12:48:00,
2013-09-21 08:50:00,65.0,63.5,29.85,SSE,148,0.0,4.0,95,0.00,,---,0.00,VWS V14.01,2013-09-21 12:50:00,
2013-09-21 08:53:00,65.0,63.5,29.85,SSE,166,2.0,4.0,95,0.00,,---,0.00,VWS V14.01,2013-09-21 12:53:00,
2013-09-21 08:58:00,65.0,63.5,29.85,SSW,201,2.0,6.0,95,0.00,,---,0.00,VWS V14.01,2013-09-21 12:58:00,
2013-09-21 09:00:00,65.1,63.6,29.85,SSW,200,5.0,7.0,95,0.00,,---,0.00,VWS V14.01,2013-09-21 13:00:00,
2013-09-21 09:03:00,65.2,63.4,29.85,SSE,160,3.0,7.0,94,0.00,,---,0.00,VWS V14.01,2013-09-21 13:03:00,
2013-09-21 09:08:00,65.4,63.6,29.85,SSW,210,2.0,8.0,94,0.00,,---,0.00,VWS V14.01,2013-09-21 13:08:00,
2013-09-21 09:10:00,65.4,63.6,29.85,SW,218,4.0,8.0,94,0.00,,---,0.00,VWS V14.01,2013-09-21 13:10:00,
2013-09-21 09:13:00,65.5,63.4,29.85,South,186,8.0,10.0,93,0.00,,---,0.00,VWS V14.01,2013-09-21 13:13:00,
2013-09-21 09:18:00,65.6,63.5,29.85,WSW,238,5.0,10.0,93,0.00,,---,0.00,VWS V14.01,2013-09-21 13:18:00,
2013-09-21 09:20:00,65.6,63.5,29.85,SSW,203,3.0,10.0,93,0.00,,---,0.00,VWS V14.01,2013-09-21 13:20:00,
2013-09-21 09:23:00,65.6,63.5,29.85,SSW,198,2.0,12.0,93,0.00,,---,0.00,VWS V14.01,2013-09-21 13:23:00,
2013-09-21 09:28:00,65.5,63.4,29.85,SW,225,5.0,12.0,93,0.00,,---,0.00,VWS V14.01,2013-09-21 13:28:00,
2013-09-21 09:30:00,65.5,63.4,29.85,SSW,203,4.0,12.0,93,0.00,,---,0.00,VWS V14.01,2013-09-21 13:30:00,
2013-09-21 09:33:00,65.3,63.5,29.85,SSE,153,2.0,9.0,94,0.00,,---,0.00,VWS V14.01,2013-09-21 13:33:00,
2013-09-21 09:38:00,65.2,63.4,29.85,SW,221,3.0,9.0,94,0.00,,---,0.00,VWS V14.01,2013-09-21 13:38:00,
2013-09-21 09:40:00,65.2,63.4,29.85,SSW,204,2.0,9.0,94,0.00,,---,0.00,VWS V14.01,2013-09-21 13:40:00,
2013-09-21 09:43:00,65.1,63.3,29.84,SSE,150,3.0,5.0,94,0.00,,---,0.00,VWS V14.01,2013-09-21 13:43:00,
2013-09-21 09:48:00,65.0,63.5,29.84,SSE,147,1.0,5.0,95,0.00,,---,0.00,VWS V14.01,2013-09-21 13:48:00,
2013-09-21 09:50:00,65.0,63.5,29.84,SE,146,0.0,5.0,95,0.00,,---,0.00,VWS V14.01,2013-09-21 13:50:00,
2013-09-21 09:53:00,64.9,63.4,29.84,ESE,116,2.0,2.0,95,0.00,,---,0.00,VWS V14.01,2013-09-21 13:53:00,
2013-09-21 09:58:00,64.9,63.7,29.84,SE,142,2.0,4.0,96,0.00,,---,0.00,VWS V14.01,2013-09-21 13:58:00,
2013-09-21 10:00:00,64.9,63.7,29.84,SE,143,5.0,5.0,96,0.00,,---,0.00,VWS V14.01,2013-09-21 14:00:00,
2013-09-21 10:03:00,64.9,63.7,29.84,SSW,210,3.0,8.0,96,0.00,,---,0.00,VWS V14.01,2013-09-21 14:03:00,
2013-09-21 10:08:00,64.9,63.7,29.84,SSW,196,2.0,8.0,96,0.00,,---,0.00,VWS V14.01,2013-09-21 14:08:00,
2013-09-21 10:10:00,64.9,63.7,29.84,SSW,195,5.0,8.0,96,0.00,,---,0.00,VWS V14.01,2013-09-21 14:10:00,
2013-09-21 10:13:00,64.9,63.7,29.84,SSE,147,4.0,5.0,96,0.00,,---,0.00,VWS V14.01,2013-09-21 14:13:00,
2013-09-21 10:18:00,64.9,63.7,29.84,South,191,3.0,6.0,96,0.00,,---,0.00,VWS V14.01,2013-09-21 14:18:00,
2013-09-21 10:20:00,64.9,63.7,29.84,SSW,206,4.0,6.0,96,0.00,,---,0.00,VWS V14.01,2013-09-21 14:20:00,
2013-09-21 10:23:00,64.8,63.6,29.84,SSE,153,3.0,7.0,96,0.00,,---,0.00,VWS V14.01,2013-09-21 14:23:00,
2013-09-21 10:28:00,64.7,63.5,29.84,SW,218,3.0,7.0,96,0.00,,---,0.00,VWS V14.01,2013-09-21 14:28:00,
2013-09-21 10:30:00,64.7,63.5,29.84,SSW,193,3.0,7.0,96,0.00,,---,0.00,VWS V14.01,2013-09-21 14:30:00,
2013-09-21 10:33:00,64.8,63.6,29.84,South,180,3.0,4.0,96,0.00,,---,0.00,VWS V14.01,2013-09-21 14:33:00,
2013-09-21 10:38:00,64.8,63.6,29.83,South,174,1.0,5.0,96,0.00,,---,0.00,VWS V14.01,2013-09-21 14:38:00,
2013-09-21 10:40:00,64.8,63.6,29.83,South,171,3.0,5.0,96,0.00,,---,0.00,VWS V14.01,2013-09-21 14:40:00,
2013-09-21 10:43:00,64.9,63.7,29.83,SSW,212,5.0,7.0,96,0.00,,---,0.00,VWS V14.01,2013-09-21 14:43:00,
2013-09-21 10:48:00,64.9,63.7,29.83,South,187,5.0,11.0,96,0.00,,---,0.00,VWS V14.01,2013-09-21 14:48:00,
2013-09-21 10:50:00,64.9,63.7,29.83,South,188,7.0,11.0,96,0.00,,---,0.00,VWS V14.01,2013-09-21 14:50:00,
2013-09-21 10:53:00,65.0,63.8,29.83,SSW,196,3.0,7.0,96,0.00,,---,0.00,VWS V14.01,2013-09-21 14:53:00,
2013-09-21 10:58:00,65.1,63.6,29.83,WSW,239,3.0,7.0,95,0.00,,---,0.00,VWS V14.01,2013-09-21 14:58:00,
2013-09-21 11:00:00,65.2,63.7,29.83,SSE,159,2.0,7.0,95,0.00,,---,0.00,VWS V14.01,2013-09-21 15:00:00,
2013-09-21 11:03:00,65.2,63.7,29.83,SSW,206,1.0,6.0,95,0.00,,---,0.00,VWS V14.01,2013-09-21 15:03:00,
2013-09-21 11:08:00,65.3,63.8,29.83,SW,236,5.0,6.0,95,0.00,,---,0.00,VWS V14.01,2013-09-21 15:08:00,
2013-09-21 11:10:00,65.3,63.8,29.83,SSW,205,4.0,8.0,95,0.00,,---,0.00,VWS V14.01,2013-09-21 15:10:00,
2013-09-21 11:13:00,65.4,63.9,29.82,SSW,205,4.0,7.0,95,0.00,,---,0.00,VWS V14.01,2013-09-21 15:13:00,
2013-09-21 11:18:00,65.3,63.8,29.82,South,179,5.0,9.0,95,0.00,,---,0.00,VWS V14.01,2013-09-21 15:18:00,
2013-09-21 11:20:00,65.3,63.8,29.82,SSW,204,3.0,9.0,95,0.00,,---,0.00,VWS V14.01,2013-09-21 15:20:00,
2013-09-21 11:23:00,65.4,63.9,29.82,SW,228,5.0,6.0,95,0.00,,---,0.00,VWS V14.01,2013-09-21 15:23:00,
2013-09-21 11:28:00,65.4,63.9,29.82,South,174,4.0,9.0,95,0.00,,---,0.00,VWS V14.01,2013-09-21 15:28:00,
2013-09-21 11:30:00,65.4,63.9,29.82,SSE,163,0.0,9.0,95,0.00,,---,0.00,VWS V14.01,2013-09-21 15:30:00,
2013-09-21 11:33:00,65.4,63.9,29.82,South,191,2.0,9.0,95,0.00,,---,0.00,VWS V14.01,2013-09-21 15:33:00,
2013-09-21 11:38:00,65.5,64.0,29.82,South,179,1.0,9.0,95,0.00,,---,0.00,VWS V14.01,2013-09-21 15:38:00,
2013-09-21 11:40:00,65.4,63.9,29.82,South,191,0.0,9.0,95,0.00,,---,0.00,VWS V14.01,2013-09-21 15:40:00,
2013-09-21 11:43:00,65.4,63.9,29.82,SSW,198,1.0,6.0,95,0.00,,---,0.00,VWS V14.01,2013-09-21 15:43:00,
2013-09-21 11:48:00,65.4,63.9,29.81,SSE,161,4.0,6.0,95,0.00,,---,0.00,VWS V14.01,2013-09-21 15:48:00,
2013-09-21 11:50:00,65.4,63.9,29.81,WSW,238,4.0,6.0,95,0.00,,---,0.00,VWS V14.01,2013-09-21 15:50:00,
2013-09-21 11:53:00,65.4,64.2,29.81,SW,235,4.0,9.0,96,0.00,,---,0.00,VWS V14.01,2013-09-21 15:53:00,
2013-09-21 11:58:00,65.4,64.2,29.81,WSW,242,6.0,9.0,96,0.00,,---,0.00,VWS V14.01,2013-09-21 15:58:00,
2013-09-21 12:00:00,65.4,64.2,29.81,SSW,203,4.0,9.0,96,0.00,,---,0.00,VWS V14.01,2013-09-21 16:00:00,
2013-09-21 12:03:00,65.5,64.3,29.80,SW,226,3.0,7.0,96,0.00,,---,0.00,VWS V14.01,2013-09-21 16:03:00,
2013-09-21 12:08:00,65.5,64.3,29.80,SSE,160,6.0,7.0,96,0.00,,---,0.00,VWS V14.01,2013-09-21 16:08:00,
2013-09-21 12:10:00,65.5,64.3,29.80,SSW,197,3.0,7.0,96,0.00,,---,0.00,VWS V14.01,2013-09-21 16:10:00,
2013-09-21 12:13:00,65.6,64.4,29.80,South,170,1.0,4.0,96,0.00,,---,0.00,VWS V14.01,2013-09-21 16:13:00,
2013-09-21 12:18:00,65.7,64.5,29.80,SSW,204,3.0,6.0,96,0.00,,---,0.00,VWS V14.01,2013-09-21 16:18:00,
2013-09-21 12:20:00,65.8,64.6,29.80,SSW,200,2.0,6.0,96,0.00,,---,0.00,VWS V14.01,2013-09-21 16:20:00,
2013-09-21 12:23:00,65.8,64.6,29.80,SSW,195,1.0,5.0,96,0.00,,---,0.00,VWS V14.01,2013-09-21 16:23:00,
2013-09-21 12:28:00,66.0,64.8,29.80,South,174,2.0,5.0,96,0.00,,---,0.00,VWS V14.01,2013-09-21 16:28:00,
2013-09-21 12:30:00,66.0,64.8,29.79,SSE,162,1.0,5.0,96,0.00,,---,0.00,VWS V14.01,2013-09-21 16:30:00,
2013-09-21 12:33:00,66.1,64.9,29.79,SSE,156,1.0,5.0,96,0.00,,---,0.00,VWS V14.01,2013-09-21 16:33:00,
2013-09-21 12:38:00,66.2,65.0,29.79,SSW,196,2.0,5.0,96,0.00,,---,0.00,VWS V14.01,2013-09-21 16:38:00,
2013-09-21 12:40:00,66.2,65.0,29.79,SSW,198,2.0,5.0,96,0.00,,---,0.00,VWS V14.01,2013-09-21 16:40:00,
2013-09-21 12:43:00,66.3,65.1,29.79,SSW,203,6.0,6.0,96,0.00,,---,0.00,VWS V14.01,2013-09-21 16:43:00,
2013-09-21 12:48:00,66.4,64.9,29.79,SW,221,3.0,10.0,95,0.00,,---,0.00,VWS V14.01,2013-09-21 16:48:00,
2013-09-21 12:50:00,66.5,65.0,29.79,WSW,248,3.0,10.0,95,0.00,,---,0.00,VWS V14.01,2013-09-21 16:50:00,
2013-09-21 12:53:00,66.6,65.1,29.79,SW,218,5.0,8.0,95,0.00,,---,0.00,VWS V14.01,2013-09-21 16:53:00,
2013-09-21 12:58:00,66.7,65.2,29.78,SSW,201,6.0,8.0,95,0.00,,---,0.00,VWS V14.01,2013-09-21 16:58:00,
2013-09-21 13:00:00,66.7,65.2,29.78,SSW,201,3.0,8.0,95,0.00,,---,0.00,VWS V14.01,2013-09-21 17:00:00,
2013-09-21 13:03:00,66.9,65.4,29.78,SW,221,0.0,4.0,95,0.00,,---,0.00,VWS V14.01,2013-09-21 17:03:00,
2013-09-21 13:08:00,66.9,65.4,29.78,South,190,3.0,6.0,95,0.00,,---,0.00,VWS V14.01,2013-09-21 17:08:00,
2013-09-21 13:10:00,66.9,65.4,29.78,SSW,197,7.0,7.0,95,0.00,,---,0.00,VWS V14.01,2013-09-21 17:10:00,
2013-09-21 13:13:00,66.8,65.3,29.78,SW,215,1.0,8.0,95,0.00,,---,0.00,VWS V14.01,2013-09-21 17:13:00,
2013-09-21 13:18:00,66.8,65.3,29.77,SSW,197,3.0,8.0,95,0.00,,---,0.00,VWS V14.01,2013-09-21 17:18:00,
2013-09-21 13:20:00,66.8,65.3,29.77,ESE,123,4.0,8.0,95,0.00,,---,0.00,VWS V14.01,2013-09-21 17:20:00,
2013-09-21 13:23:00,66.7,65.2,29.77,SSE,158,5.0,6.0,95,0.00,,---,0.00,VWS V14.01,2013-09-21 17:23:00,
2013-09-21 13:28:00,66.8,65.3,29.77,SSE,159,2.0,9.0,95,0.00,,---,0.00,VWS V14.01,2013-09-21 17:28:00,
2013-09-21 13:30:00,66.8,65.3,29.77,South,176,2.0,9.0,95,0.00,,---,0.00,VWS V14.01,2013-09-21 17:30:00,
2013-09-21 13:33:00,66.8,65.3,29.77,SE,146,1.0,4.0,95,0.00,,---,0.00,VWS V14.01,2013-09-21 17:33:00,
2013-09-21 13:38:00,66.8,65.3,29.76,South,172,1.0,5.0,95,0.00,,---,0.00,VWS V14.01,2013-09-21 17:38:00,
2013-09-21 13:40:00,66.9,65.4,29.76,SSW,203,0.0,5.0,95,0.00,,---,0.00,VWS V14.01,2013-09-21 17:40:00,
2013-09-21 13:43:00,66.9,65.4,29.76,SSW,212,5.0,7.0,95,0.00,,---,0.00,VWS V14.01,2013-09-21 17:43:00,
2013-09-21 13:48:00,66.9,65.4,29.76,SSW,205,5.0,10.0,95,0.00,,---,0.00,VWS V14.01,2013-09-21 17:48:00,
2013-09-21 13:50:00,66.9,65.4,29.76,SSW,208,4.0,10.0,95,0.00,,---,0.00,VWS V14.01,2013-09-21 17:50:00,
2013-09-21 13:53:00,67.0,65.5,29.76,South,176,5.0,6.0,95,0.00,,---,0.00,VWS V14.01,2013-09-21 17:53:00,
2013-09-21 13:58:00,67.0,65.5,29.75,SSE,155,4.0,10.0,95,0.00,,---,0.00,VWS V14.01,2013-09-21 17:58:00,
2013-09-21 14:00:00,67.0,65.5,29.75,SW,221,4.0,10.0,95,0.00,,---,0.00,VWS V14.01,2013-09-21 18:00:00,
2013-09-21 14:03:00,67.0,65.5,29.75,SW,229,3.0,9.0,95,0.00,,---,0.00,VWS V14.01,2013-09-21 18:03:00,
2013-09-21 14:08:00,67.0,65.5,29.75,South,183,5.0,11.0,95,0.00,,---,0.00,VWS V14.01,2013-09-21 18:08:00,
2013-09-21 14:10:00,67.0,65.5,29.75,SSE,165,3.0,11.0,95,0.00,,---,0.00,VWS V14.01,2013-09-21 18:10:00,
2013-09-21 14:13:00,67.0,65.5,29.75,South,174,2.0,7.0,95,0.00,,---,0.00,VWS V14.01,2013-09-21 18:13:00,
2013-09-21 14:18:00,67.1,65.6,29.75,SSW,203,1.0,7.0,95,0.00,,---,0.00,VWS V14.01,2013-09-21 18:18:00,
2013-09-21 14:20:00,67.1,65.6,29.75,SW,224,1.0,7.0,95,0.00,,---,0.00,VWS V14.01,2013-09-21 18:20:00,
2013-09-21 14:24:00,67.1,65.9,29.75,SSW,212,5.0,5.0,96,0.00,,---,0.00,VWS V14.01,2013-09-21 18:24:00,
2013-09-21 14:29:00,67.1,65.6,29.74,SW,219,6.0,11.0,95,0.00,,---,0.00,VWS V14.01,2013-09-21 18:29:00,
2013-09-21 14:30:00,67.1,65.6,29.74,SW,219,4.0,11.0,95,0.00,,---,0.00,VWS V14.01,2013-09-21 18:30:00,
2013-09-21 14:34:00,67.2,65.7,29.74,SSW,201,3.0,5.0,95,0.00,,---,0.00,VWS V14.01,2013-09-21 18:34:00,
2013-09-21 14:39:00,67.2,65.7,29.74,SW,235,3.0,5.0,95,0.00,,---,0.00,VWS V14.01,2013-09-21 18:39:00,
2013-09-21 14:40:00,67.2,65.7,29.74,SW,218,4.0,5.0,95,0.00,,---,0.00,VWS V14.01,2013-09-21 18:40:00,
2013-09-21 14:44:00,67.2,65.7,29.74,WSW,253,2.0,6.0,95,0.00,,---,0.00,VWS V14.01,2013-09-21 18:44:00,
2013-09-21 14:49:00,67.2,65.7,29.74,SW,224,2.0,6.0,95,0.00,,---,0.00,VWS V14.01,2013-09-21 18:49:00,
2013-09-21 14:50:00,67.2,65.7,29.74,SW,214,1.0,6.0,95,0.00,,---,0.00,VWS V14.01,2013-09-21 18:50:00,
2013-09-21 14:54:00,67.3,65.8,29.74,SW,215,1.0,4.0,95,0.00,,---,0.00,VWS V14.01,2013-09-21 18:54:00,
2013-09-21 14:59:00,67.3,65.8,29.73,SW,233,3.0,7.0,95,0.00,,---,0.00,VWS V14.01,2013-09-21 18:59:00,
2013-09-21 15:00:00,67.3,65.8,29.74,WSW,238,3.0,7.0,95,0.00,,---,0.00,VWS V14.01,2013-09-21 19:00:00,
2013-09-21 15:04:00,67.3,65.8,29.73,SSW,196,3.0,6.0,95,0.00,,---,0.00,VWS V14.01,2013-09-21 19:04:00,
2013-09-21 15:09:00,67.3,65.8,29.73,SW,235,1.0,6.0,95,0.00,,---,0.00,VWS V14.01,2013-09-21 19:09:00,
2013-09-21 15:10:00,67.3,66.1,29.73,SW,235,1.0,6.0,96,0.00,,---,0.00,VWS V14.01,2013-09-21 19:10:00,
2013-09-21 15:14:00,67.4,66.2,29.73,SW,225,3.0,5.0,96,0.00,,---,0.00,VWS V14.01,2013-09-21 19:14:00,
2013-09-21 15:19:00,67.5,66.0,29.73,SSW,204,2.0,7.0,95,0.00,,---,0.00,VWS V14.01,2013-09-21 19:19:00,
2013-09-21 15:20:00,67.5,66.0,29.73,West,264,2.0,7.0,95,0.00,,---,0.00,VWS V14.01,2013-09-21 19:20:00,
2013-09-21 15:24:00,67.5,66.0,29.73,WSW,242,4.0,7.0,95,0.01,,---,0.01,VWS V14.01,2013-09-21 19:24:00,
2013-09-21 15:29:00,67.7,66.2,29.72,SSW,200,1.0,7.0,95,0.01,,---,0.01,VWS V14.01,2013-09-21 19:29:00,
2013-09-21 15:30:00,67.7,66.2,29.72,SW,232,4.0,7.0,95,0.01,,---,0.01,VWS V14.01,2013-09-21 19:30:00,
2013-09-21 15:34:00,67.8,66.3,29.72,WSW,239,4.0,7.0,95,0.01,,---,0.01,VWS V14.01,2013-09-21 19:34:00,
2013-09-21 15:39:00,67.9,66.4,29.72,SSW,203,4.0,8.0,95,0.01,,---,0.01,VWS V14.01,2013-09-21 19:39:00,
2013-09-21 15:40:00,67.8,66.3,29.72,SSW,193,3.0,8.0,95,0.01,,---,0.01,VWS V14.01,2013-09-21 19:40:00,
2013-09-21 15:44:00,68.0,66.5,29.72,SSE,162,3.0,7.0,95,0.02,,---,0.02,VWS V14.01,2013-09-21 19:44:00,
2013-09-21 15:49:00,68.0,66.5,29.71,SSW,193,6.0,8.0,95,0.02,,---,0.02,VWS V14.01,2013-09-21 19:49:00,
2013-09-21 15:50:00,68.0,66.5,29.71,SSW,193,5.0,8.0,95,0.02,,---,0.02,VWS V14.01,2013-09-21 19:50:00,
2013-09-21 15:54:00,68.1,66.6,29.71,SW,231,3.0,7.0,95,0.02,,---,0.02,VWS V14.01,2013-09-21 19:54:00,
2013-09-21 15:59:00,68.2,66.7,29.71,SSW,201,4.0,8.0,95,0.02,,---,0.02,VWS V14.01,2013-09-21 19:59:00,
2013-09-21 16:00:00,68.2,66.7,29.71,SSW,205,5.0,8.0,95,0.02,,---,0.02,VWS V14.01,2013-09-21 20:00:00,
2013-09-21 16:04:00,68.3,66.8,29.71,SW,228,5.0,7.0,95,0.02,,---,0.02,VWS V14.01,2013-09-21 20:04:00,
2013-09-21 16:09:00,68.3,66.5,29.71,SSW,200,4.0,10.0,94,0.02,,---,0.02,VWS V14.01,2013-09-21 20:09:00,
2013-09-21 16:10:00,68.3,66.5,29.71,SSW,201,4.0,10.0,94,0.02,,---,0.02,VWS V14.01,2013-09-21 20:10:00,
2013-09-21 16:14:00,68.3,66.8,29.71,SSE,153,3.0,8.0,95,0.02,,---,0.02,VWS V14.01,2013-09-21 20:14:00,
2013-09-21 16:19:00,68.3,66.8,29.70,SW,235,3.0,9.0,95,0.02,,---,0.02,VWS V14.01,2013-09-21 20:19:00,
2013-09-21 16:20:00,68.3,66.8,29.70,SW,235,3.0,9.0,95,0.02,,---,0.02,VWS V14.01,2013-09-21 20:20:00,
2013-09-21 16:24:00,68.2,66.7,29.70,SW,225,1.0,8.0,95,0.02,,---,0.02,VWS V14.01,2013-09-21 20:24:00,
2013-09-21 16:29:00,68.2,66.7,29.70,SW,215,5.0,8.0,95,0.02,,---,0.02,VWS V14.01,2013-09-21 20:29:00,
2013-09-21 16:30:00,68.2,66.7,29.70,SW,221,4.0,8.0,95,0.02,,---,0.02,VWS V14.01,2013-09-21 20:30:00,
2013-09-21 16:34:00,68.2,66.7,29.69,SW,215,6.0,7.0,95,0.01,,---,0.02,VWS V14.01,2013-09-21 20:34:00,
2013-09-21 16:39:00,68.3,66.8,29.69,SW,226,4.0,12.0,95,0.01,,---,0.02,VWS V14.01,2013-09-21 20:39:00,
2013-09-21 16:40:00,68.3,66.8,29.69,SSE,158,3.0,12.0,95,0.01,,---,0.02,VWS V14.01,2013-09-21 20:40:00,
2013-09-21 16:44:00,68.4,66.6,29.69,SW,226,5.0,12.0,94,0.01,,---,0.02,VWS V14.01,2013-09-21 20:44:00,
2013-09-21 16:49:00,68.4,66.6,29.69,SW,228,4.0,12.0,94,0.01,,---,0.02,VWS V14.01,2013-09-21 20:49:00,
2013-09-21 16:50:00,68.4,66.6,29.69,SW,228,4.0,12.0,94,0.01,,---,0.02,VWS V14.01,2013-09-21 20:50:00,
2013-09-21 16:54:00,68.4,66.9,29.69,South,180,3.0,7.0,95,0.00,,---,0.02,VWS V14.01,2013-09-21 20:54:00,
2013-09-21 16:59:00,68.5,67.0,29.69,WSW,256,4.0,8.0,95,0.00,,---,0.02,VWS V14.01,2013-09-21 20:59:00,
2013-09-21 17:00:00,68.5,67.0,29.69,WSW,243,4.0,8.0,95,0.00,,---,0.02,VWS V14.01,2013-09-21 21:00:00,
2013-09-21 17:04:00,68.5,67.0,29.68,SSW,212,2.0,6.0,95,0.00,,---,0.02,VWS V14.01,2013-09-21 21:04:00,
2013-09-21 17:09:00,68.5,67.0,29.68,SSW,193,1.0,6.0,95,0.00,,---,0.02,VWS V14.01,2013-09-21 21:09:00,
2013-09-21 17:10:00,68.5,67.0,29.68,South,188,1.0,6.0,95,0.00,,---,0.02,VWS V14.01,2013-09-21 21:10:00,
2013-09-21 17:14:00,68.5,67.0,29.68,SSW,194,4.0,5.0,95,0.01,,---,0.03,VWS V14.01,2013-09-21 21:14:00,
2013-09-21 17:19:00,68.5,67.0,29.68,SE,145,2.0,5.0,95,0.01,,---,0.03,VWS V14.01,2013-09-21 21:19:00,
2013-09-21 17:20:00,68.5,67.0,29.68,SE,146,1.0,5.0,95,0.01,,---,0.03,VWS V14.01,2013-09-21 21:20:00,
2013-09-21 17:24:00,68.5,67.0,29.68,SW,217,2.0,9.0,95,0.01,,---,0.03,VWS V14.01,2013-09-21 21:24:00,
2013-09-21 17:29:00,68.5,67.0,29.68,SW,218,3.0,9.0,95,0.01,,---,0.03,VWS V14.01,2013-09-21 21:29:00,
2013-09-21 17:30:00,68.5,67.0,29.68,SW,218,3.0,9.0,95,0.01,,---,0.03,VWS V14.01,2013-09-21 21:30:00,
2013-09-21 17:34:00,68.5,67.0,29.68,SE,145,4.0,6.0,95,0.01,,---,0.03,VWS V14.01,2013-09-21 21:34:00,
2013-09-21 17:39:00,68.6,67.1,29.68,SSW,196,3.0,7.0,95,0.01,,---,0.03,VWS V14.01,2013-09-21 21:39:00,
2013-09-21 17:40:00,68.6,67.1,29.68,SSW,196,3.0,7.0,95,0.01,,---,0.03,VWS V14.01,2013-09-21 21:40:00,
2013-09-21 17:44:00,68.6,67.1,29.68,SW,215,3.0,7.0,95,0.01,,---,0.03,VWS V14.01,2013-09-21 21:44:00,
2013-09-21 17:49:00,68.6,67.1,29.68,SW,228,8.0,9.0,95,0.01,,---,0.03,VWS V14.01,2013-09-21 21:49:00,
2013-09-21 17:50:00,68.6,67.1,29.68,SW,228,8.0,9.0,95,0.01,,---,0.03,VWS V14.01,2013-09-21 21:50:00,
2013-09-21 17:54:00,68.7,66.9,29.68,SSE,148,2.0,14.0,94,0.01,,---,0.03,VWS V14.01,2013-09-21 21:54:00,
2013-09-21 17:59:00,68.7,66.9,29.67,SSW,193,4.0,14.0,94,0.01,,---,0.03,VWS V14.01,2013-09-21 21:59:00,
2013-09-21 18:00:00,68.7,66.9,29.68,SSE,149,4.0,14.0,94,0.01,,---,0.03,VWS V14.01,2013-09-21 22:00:00,
2013-09-21 18:04:00,68.9,67.1,29.67,South,172,5.0,13.0,94,0.01,,---,0.03,VWS V14.01,2013-09-21 22:04:00,
2013-09-21 18:09:00,69.0,66.6,29.67,SW,215,4.0,13.0,92,0.01,,---,0.03,VWS V14.01,2013-09-21 22:09:00,
2013-09-21 18:10:00,69.0,66.6,29.67,SW,215,4.0,13.0,92,0.01,,---,0.03,VWS V14.01,2013-09-21 22:10:00,
2013-09-21 18:14:00,69.1,66.7,29.67,SSW,198,4.0,9.0,92,0.01,,---,0.03,VWS V14.01,2013-09-21 22:14:00,
2013-09-21 18:19:00,69.0,66.6,29.67,SSW,208,4.0,9.0,92,0.01,,---,0.03,VWS V14.01,2013-09-21 22:19:00,
2013-09-21 18:20:00,69.0,66.6,29.67,SSW,208,4.0,9.0,92,0.01,,---,0.03,VWS V14.01,2013-09-21 22:20:00,
2013-09-21 18:24:00,68.8,66.7,29.67,SSW,201,2.0,5.0,93,0.00,,---,0.03,VWS V14.01,2013-09-21 22:24:00,
2013-09-21 18:29:00,68.6,66.5,29.67,SSE,148,4.0,6.0,93,0.01,,---,0.04,VWS V14.01,2013-09-21 22:29:00,
2013-09-21 18:30:00,68.6,66.5,29.66,SSE,166,4.0,6.0,93,0.01,,---,0.04,VWS V14.01,2013-09-21 22:30:00,
2013-09-21 18:34:00,68.5,66.7,29.66,SSW,211,1.0,7.0,94,0.02,,---,0.05,VWS V14.01,2013-09-21 22:34:00,
2013-09-21 18:39:00,68.4,66.6,29.66,SE,129,1.0,7.0,94,0.03,,---,0.06,VWS V14.01,2013-09-21 22:39:00,
2013-09-21 18:40:00,68.4,66.6,29.66,SE,129,1.0,7.0,94,0.03,,---,0.06,VWS V14.01,2013-09-21 22:40:00,
2013-09-21 18:44:00,68.3,66.8,29.66,South,181,3.0,7.0,95,0.06,,---,0.09,VWS V14.01,2013-09-21 22:44:00,
2013-09-21 18:49:00,68.2,66.7,29.67,SW,219,1.0,7.0,95,0.12,,---,0.15,VWS V14.01,2013-09-21 22:49:00,
2013-09-21 18:50:00,68.2,66.7,29.67,SW,219,1.0,7.0,95,0.12,,---,0.15,VWS V14.01,2013-09-21 22:50:00,
2013-09-21 18:54:00,68.2,66.7,29.67,SSW,201,16.0,16.0,95,0.13,,---,0.16,VWS V14.01,2013-09-21 22:54:00,
2013-09-21 18:59:00,68.3,66.2,29.66,SSW,209,3.0,17.0,93,0.14,,---,0.17,VWS V14.01,2013-09-21 22:59:00,
2013-09-21 19:00:00,68.3,66.2,29.66,SSW,209,3.0,17.0,93,0.14,,---,0.17,VWS V14.01,2013-09-21 23:00:00,
2013-09-21 19:04:00,68.0,65.9,29.67,SW,232,9.0,13.0,93,0.16,,---,0.19,VWS V14.01,2013-09-21 23:04:00,
2013-09-21 19:09:00,67.7,65.9,29.67,WSW,249,8.0,8.0,94,0.16,,---,0.19,VWS V14.01,2013-09-21 23:09:00,
2013-09-21 19:10:00,67.7,65.9,29.67,SW,234,7.0,17.0,94,0.16,,---,0.19,VWS V14.01,2013-09-21 23:10:00,
2013-09-21 19:14:00,67.5,65.7,29.67,West,261,3.0,12.0,94,0.17,,---,0.20,VWS V14.01,2013-09-21 23:14:00,
2013-09-21 19:19:00,67.3,65.8,29.67,WNW,287,3.0,3.0,95,0.17,,---,0.20,VWS V14.01,2013-09-21 23:19:00,
2013-09-21 19:20:00,67.4,65.9,29.67,West,267,2.0,12.0,95,0.17,,---,0.20,VWS V14.01,2013-09-21 23:20:00,
2013-09-21 19:24:00,67.2,65.7,29.67,West,259,4.0,6.0,95,0.18,,---,0.21,VWS V14.01,2013-09-21 23:24:00,
2013-09-21 19:29:00,67.0,65.8,29.68,WNW,295,3.0,3.0,96,0.19,,---,0.23,VWS V14.01,2013-09-21 23:29:00,
2013-09-21 19:30:00,67.0,65.8,29.68,WNW,290,3.0,8.0,96,0.20,,---,0.23,VWS V14.01,2013-09-21 23:30:00,
2013-09-21 19:34:00,66.4,64.9,29.68,WSW,256,3.0,11.0,95,0.26,,---,0.30,VWS V14.01,2013-09-21 23:34:00,
2013-09-21 19:39:00,65.9,64.4,29.69,West,266,0.0,0.0,95,0.24,,---,0.30,VWS V14.01,2013-09-21 23:39:00,
2013-09-21 19:40:00,65.9,64.4,29.69,West,266,0.0,11.0,95,0.26,,---,0.30,VWS V14.01,2013-09-21 23:40:00,
2013-09-21 19:44:00,65.5,64.0,29.69,West,278,2.0,4.0,95,0.25,,---,0.31,VWS V14.01,2013-09-21 23:44:00,
2013-09-21 19:49:00,65.2,63.7,29.69,WNW,286,1.0,1.0,95,0.16,,---,0.31,VWS V14.01,2013-09-21 23:49:00,
2013-09-21 19:50:00,65.3,63.8,29.69,WNW,288,1.0,4.0,95,0.25,,---,0.31,VWS V14.01,2013-09-21 23:50:00,
2013-09-21 19:54:00,65.1,63.9,29.69,WSW,257,0.0,3.0,96,0.16,,---,0.31,VWS V14.01,2013-09-21 23:54:00,
2013-09-21 20:00:00,68.3,66.2,29.66,SSW,209,3.0,17.0,93,0.14,,---,0.17,VWS V14.01,2013-09-22 00:00:00,
2013-09-21 20:05:00,64.7,63.5,29.70,West,273,0.0,2.0,96,0.17,,---,0.32,VWS V14.01,2013-09-22 00:05:00,
2013-09-21 20:10:00,64.6,63.4,29.70,West,280,1.0,2.0,96,0.13,,---,0.32,VWS V14.01,2013-09-22 00:10:00,
2013-09-21 20:15:00,64.5,63.3,29.70,WNW,291,0.0,4.0,96,0.14,,---,0.33,VWS V14.01,2013-09-22 00:15:00,
2013-09-21 20:20:00,64.3,63.1,29.71,NW,305,0.0,1.0,96,0.13,,---,0.33,VWS V14.01,2013-09-22 00:20:00,
2013-09-21 20:25:00,64.3,63.1,29.70,NW,307,0.0,1.0,96,0.14,,---,0.34,VWS V14.01,2013-09-22 00:25:00,
2013-09-21 20:30:00,64.2,63.0,29.70,NW,306,0.0,0.0,96,0.11,,---,0.34,VWS V14.01,2013-09-22 00:30:00,
2013-09-21 20:35:00,64.1,63.2,29.71,NW,306,0.0,0.0,97,0.11,,---,0.34,VWS V14.01,2013-09-22 00:35:00,
2013-09-21 20:40:00,64.1,63.2,29.71,NW,306,0.0,0.0,97,0.05,,---,0.35,VWS V14.01,2013-09-22 00:40:00,
2013-09-21 20:45:00,64.1,63.2,29.71,NW,306,0.0,0.0,97,0.05,,---,0.35,VWS V14.01,2013-09-22 00:45:00,
2013-09-21 20:50:00,64.0,63.1,29.71,NW,307,0.0,0.0,97,0.04,,---,0.35,VWS V14.01,2013-09-22 00:50:00,
2013-09-21 20:55:00,64.0,63.1,29.71,NW,306,0.0,0.0,97,0.05,,---,0.36,VWS V14.01,2013-09-22 00:55:00,
2013-09-21 21:00:00,63.9,63.0,29.71,NW,306,0.0,0.0,97,0.04,,---,0.36,VWS V14.01,2013-09-22 01:00:00,
2013-09-21 21:05:00,63.9,63.0,29.71,NW,305,0.0,0.0,97,0.04,,---,0.36,VWS V14.01,2013-09-22 01:05:00,
2013-09-21 21:10:00,63.9,63.0,29.71,NW,307,0.0,0.0,97,0.04,,---,0.36,VWS V14.01,2013-09-22 01:10:00,
2013-09-21 21:15:00,63.9,63.0,29.70,NNE,18,0.0,1.0,97,0.04,,---,0.36,VWS V14.01,2013-09-22 01:15:00,
2013-09-21 21:20:00,63.9,63.0,29.71,NNE,16,0.0,1.0,97,0.03,,---,0.36,VWS V14.01,2013-09-22 01:20:00,
2013-09-21 21:25:00,63.9,63.3,29.71,NNW,337,0.0,1.0,98,0.03,,---,0.36,VWS V14.01,2013-09-22 01:25:00,
2013-09-21 21:30:00,63.8,63.2,29.71,NNW,337,0.0,0.0,98,0.02,,---,0.36,VWS V14.01,2013-09-22 01:30:00,
2013-09-21 21:35:00,63.8,63.2,29.71,North,353,0.0,1.0,98,0.02,,---,0.36,VWS V14.01,2013-09-22 01:35:00,
2013-09-21 21:40:00,63.8,63.2,29.72,North,352,0.0,0.0,98,0.01,,---,0.36,VWS V14.01,2013-09-22 01:40:00,
2013-09-21 21:45:00,63.8,63.2,29.72,North,352,0.0,0.0,98,0.01,,---,0.36,VWS V14.01,2013-09-22 01:45:00,
2013-09-21 21:50:00,63.7,63.1,29.72,North,351,0.0,0.0,98,0.01,,---,0.36,VWS V14.01,2013-09-22 01:50:00,
2013-09-21 21:55:00,63.7,63.1,29.72,North,352,0.0,0.0,98,0.01,,---,0.36,VWS V14.01,2013-09-22 01:55:00,
2013-09-21 22:00:00,63.6,63.0,29.72,East,85,0.0,0.0,98,0.00,,---,0.36,VWS V14.01,2013-09-22 02:00:00,
2013-09-21 22:05:00,63.6,63.0,29.72,East,85,0.0,0.0,98,0.00,,---,0.36,VWS V14.01,2013-09-22 02:05:00,
2013-09-21 22:10:00,63.5,62.9,29.72,East,85,0.0,0.0,98,0.00,,---,0.36,VWS V14.01,2013-09-22 02:10:00,
2013-09-21 22:15:00,63.5,62.9,29.73,East,84,0.0,0.0,98,0.00,,---,0.36,VWS V14.01,2013-09-22 02:15:00,
2013-09-21 22:20:00,63.5,62.9,29.72,East,84,0.0,0.0,98,0.00,,---,0.36,VWS V14.01,2013-09-22 02:20:00,
2013-09-21 22:25:00,63.5,62.9,29.73,East,84,0.0,0.0,98,0.00,,---,0.36,VWS V14.01,2013-09-22 02:25:00,
2013-09-21 22:30:00,63.4,62.8,29.73,East,84,0.0,0.0,98,0.00,,---,0.36,VWS V14.01,2013-09-22 02:30:00,
2013-09-21 22:35:00,63.4,62.8,29.73,East,84,0.0,0.0,98,0.00,,---,0.36,VWS V14.01,2013-09-22 02:35:00,
2013-09-21 22:40:00,63.4,62.8,29.73,East,85,0.0,0.0,98,0.00,,---,0.36,VWS V14.01,2013-09-22 02:40:00,
2013-09-21 22:45:00,63.3,62.7,29.72,East,84,0.0,0.0,98,0.00,,---,0.36,VWS V14.01,2013-09-22 02:45:00,
2013-09-21 22:50:00,63.3,62.7,29.72,East,85,0.0,0.0,98,0.00,,---,0.36,VWS V14.01,2013-09-22 02:50:00,
2013-09-21 22:55:00,63.3,62.7,29.72,East,85,0.0,0.0,98,0.00,,---,0.36,VWS V14.01,2013-09-22 02:55:00,
2013-09-21 23:00:00,63.2,62.6,29.72,East,85,0.0,0.0,98,0.00,,---,0.36,VWS V14.01,2013-09-22 03:00:00,
2013-09-21 23:05:00,63.2,62.6,29.72,East,85,0.0,0.0,98,0.00,,---,0.36,VWS V14.01,2013-09-22 03:05:00,
2013-09-21 23:10:00,63.2,62.6,29.72,East,85,0.0,0.0,98,0.00,,---,0.36,VWS V14.01,2013-09-22 03:10:00,
2013-09-21 23:15:00,63.1,62.5,29.72,East,84,0.0,0.0,98,0.00,,---,0.36,VWS V14.01,2013-09-22 03:15:00,
2013-09-21 23:20:00,63.0,62.4,29.73,East,85,0.0,0.0,98,0.00,,---,0.36,VWS V14.01,2013-09-22 03:20:00,
2013-09-21 23:25:00,63.0,62.4,29.73,East,84,0.0,0.0,98,0.00,,---,0.36,VWS V14.01,2013-09-22 03:25:00,
2013-09-21 23:30:00,62.8,62.2,29.73,East,85,0.0,0.0,98,0.00,,---,0.36,VWS V14.01,2013-09-22 03:30:00,
2013-09-21 23:35:00,62.7,62.1,29.73,East,85,0.0,0.0,98,0.00,,---,0.36,VWS V14.01,2013-09-22 03:35:00,
2013-09-21 23:40:00,62.5,61.9,29.73,East,85,0.0,0.0,98,0.00,,---,0.36,VWS V14.01,2013-09-22 03:40:00,
2013-09-21 23:45:00,62.4,61.8,29.73,East,85,0.0,0.0,98,0.00,,---,0.36,VWS V14.01,2013-09-22 03:45:00,
2013-09-21 23:50:00,62.4,61.8,29.73,East,84,0.0,0.0,98,0.00,,---,0.36,VWS V14.01,2013-09-22 03:50:00,
2013-09-21 23:55:00,62.3,61.7,29.73,East,85,0.0,0.0,98,0.00,,---,0.36,VWS V14.01,2013-09-22 03:55:00,